Terminal Aerodrome Forecast
Issued by NWS

Home | Current Version | Previous Version | Graphics & Text | Print | Product List | Glossary On
Versions: 1 2 3 4 5 6 7 8 9 10 11 12 13 14 15 16
000
FTUS43 KICT 231249 AAA
TAFCNU
TAF AMD
KCNU 231249Z 2313/2412 33010KT P6SM VCSH SCT015 OVC090
      TEMPO 2313/2315 6SM -SHRA OVC015
     FM231500 33013G19KT P6SM BKN090
     FM231800 33015G22KT P6SM VCSH SCT040 BKN100
      TEMPO 2319/2323 BKN040
     FM240000 33009KT P6SM BKN050=

USA.gov is the U.S. government's official web portal to all federal, state and local government web resources and services.